createdAt,value
2019-04-28T00:01:06.472Z,101207.33
2019-04-28T00:02:13.303Z,101210.47
2019-04-28T00:03:18.292Z,101204.52
2019-04-28T00:04:23.711Z,101206.33
2019-04-28T00:05:28.609Z,101210.47
2019-04-28T00:06:34.154Z,101210.57
2019-04-28T00:07:41.092Z,101213.86
2019-04-28T00:08:46.157Z,101210.34
2019-04-28T00:09:51.482Z,101205.61
2019-04-28T00:10:57.076Z,101210.08
2019-04-28T00:12:02.467Z,101210.67
2019-04-28T00:13:07.714Z,101210.67
2019-04-28T00:14:17.151Z,101209.23
2019-04-28T00:15:22.284Z,101208.27
2019-04-28T00:16:27.443Z,101206.83
2019-04-28T00:17:32.985Z,101208.75
2019-04-28T00:18:38.494Z,101204.39
2019-04-28T00:19:43.628Z,101208.38
2019-04-28T00:21:16.637Z,101208.38
2019-04-28T00:22:43.279Z,101210.19
2019-04-28T00:24:16.317Z,101209.23
2019-04-28T00:25:24.750Z,101208.01
2019-04-28T00:26:43.013Z,101211.77
2019-04-28T00:27:48.103Z,101209.36
2019-04-28T00:28:53.515Z,101213.83
2019-04-28T00:29:58.797Z,101212.02
2019-04-28T00:31:04.201Z,101213.72
2019-04-28T00:32:13.260Z,101218.91
2019-04-28T00:33:18.523Z,101215.42
2019-04-28T00:34:23.829Z,101217.23
2019-04-28T00:35:28.886Z,101213.72
2019-04-28T00:36:34.146Z,101216.48
2019-04-28T00:37:41.788Z,101215.64
2019-04-28T00:38:46.769Z,101213.97
2019-04-28T00:39:52.255Z,101211.78
2019-04-28T00:40:57.710Z,101220.25
2019-04-28T00:42:03.322Z,101213.12
2019-04-28T00:43:10.380Z,101218.81
2019-04-28T00:44:16.323Z,101215.78
2019-04-28T00:45:21.580Z,101217.48
2019-04-28T00:46:31.285Z,101215.78
2019-04-28T00:47:36.558Z,101216.73
2019-04-28T00:48:41.616Z,101216.40
2019-04-28T00:49:46.733Z,101216.98
2019-04-28T00:50:51.973Z,101214.32
2019-04-28T00:51:57.722Z,101216.50
2019-04-28T00:53:02.824Z,101212.14
2019-04-28T00:54:07.890Z,101212.99
2019-04-28T00:55:13.188Z,101216.64
2019-04-28T00:56:18.198Z,101211.32
2019-04-28T00:57:23.814Z,101217.23
2019-04-28T00:58:28.982Z,101206.59
2019-04-28T00:59:34.041Z,101214.09
2019-04-28T01:00:41.467Z,101216.75
2019-04-28T01:01:56.045Z,101216.75
2019-04-28T01:03:02.162Z,101217.60
2019-04-28T01:04:07.560Z,101216.27
2019-04-28T01:05:12.808Z,101217.60
2019-04-28T01:06:17.945Z,101220.27
2019-04-28T01:07:23.064Z,101217.23
2019-04-28T01:08:28.403Z,101221.59
2019-04-28T01:09:33.565Z,101215.91
2019-04-28T01:10:38.691Z,101218.19
2019-04-28T01:11:43.776Z,101216.63
2019-04-28T01:12:50.869Z,101217.95
2019-04-28T01:13:55.639Z,101216.77
2019-04-28T01:15:04.539Z,101216.02
2019-04-28T01:16:13.960Z,101213.02
2019-04-28T01:17:50.252Z,101218.82
2019-04-28T01:19:00.157Z,101213.98
2019-04-28T01:20:06.948Z,101216.41
2019-04-28T01:21:12.057Z,101217.36
2019-04-28T01:22:20.147Z,101220.02
2019-04-28T01:23:25.176Z,101215.66
2019-04-28T01:24:30.268Z,101214.33
2019-04-28T01:25:35.553Z,101221.83
2019-04-28T01:26:41.653Z,101218.46
2019-04-28T01:27:50.785Z,101219.42
2019-04-28T01:28:55.856Z,101218.46
2019-04-28T01:30:07.997Z,101217.98
2019-04-28T01:31:34.797Z,101216.66
2019-04-28T01:32:45.652Z,101222.80
2019-04-28T01:34:10.313Z,101216.99
2019-04-28T01:35:15.618Z,101220.50
2019-04-28T01:36:20.744Z,101217.84
2019-04-28T01:37:26.110Z,101219.55
2019-04-28T01:38:31.299Z,101212.89
2019-04-28T01:39:36.393Z,101222.58
2019-04-28T01:40:41.598Z,101218.92
2019-04-28T01:41:46.571Z,101213.61
2019-04-28T01:42:51.573Z,101214.59
2019-04-28T01:43:56.729Z,101209.86
2019-04-28T01:45:02.015Z,101212.66
2019-04-28T01:46:07.055Z,101215.80
2019-04-28T01:47:12.246Z,101214.81
2019-04-28T01:48:17.521Z,101210.48
2019-04-28T01:49:23.122Z,101218.94
2019-04-28T01:50:29.950Z,101213.73
2019-04-28T01:51:36.221Z,101211.58
2019-04-28T01:52:41.327Z,101216.05
2019-04-28T01:53:46.745Z,101218.33
2019-04-28T01:54:51.801Z,101211.69
2019-04-28T01:55:57.142Z,101221.47
2019-04-28T01:57:02.327Z,101214.59
2019-04-28T01:58:07.332Z,101216.77
2019-04-28T01:59:12.377Z,101219.77
2019-04-28T02:00:25.156Z,101216.77
2019-04-28T02:01:25.874Z,101220.76
2019-04-28T02:02:30.999Z,101221.61
2019-04-28T02:03:36.045Z,101214.45
2019-04-28T02:04:41.133Z,101219.77
2019-04-28T02:05:46.383Z,101216.29
2019-04-28T02:06:52.929Z,101226.19
2019-04-28T02:07:58.087Z,101226.32
2019-04-28T02:09:03.125Z,101221.48
2019-04-28T02:10:10.156Z,101230.41
2019-04-28T02:11:15.050Z,101230.55
2019-04-28T02:12:20.425Z,101224.97
2019-04-28T02:13:25.551Z,101230.28
2019-04-28T02:14:30.951Z,101232.12
2019-04-28T02:15:36.509Z,101229.80
2019-04-28T02:16:41.562Z,101230.66
2019-04-28T02:17:46.665Z,101232.47
2019-04-28T02:18:51.922Z,101229.80
2019-04-28T02:19:57.130Z,101233.08
2019-04-28T02:21:27.390Z,101232.23
2019-04-28T02:22:37.309Z,101229.81
2019-04-28T02:23:42.358Z,101231.76
2019-04-28T02:24:47.326Z,101233.56
2019-04-28T02:25:52.336Z,101231.86
2019-04-28T02:26:57.631Z,101229.45
2019-04-28T02:28:02.750Z,101230.88
2019-04-28T02:29:07.990Z,101228.84
2019-04-28T02:30:13.267Z,101232.92
2019-04-28T02:31:21.516Z,101233.54
2019-04-28T02:32:25.236Z,101231.73
2019-04-28T02:33:31.269Z,101234.39
2019-04-28T02:34:36.537Z,101232.82
2019-04-28T02:35:42.250Z,101237.77
2019-04-28T02:36:47.450Z,101234.26
2019-04-28T02:37:52.780Z,101239.57
2019-04-28T02:38:57.793Z,101239.57
2019-04-28T02:40:03.490Z,101233.41
2019-04-28T02:41:11.078Z,101235.58
2019-04-28T02:42:15.653Z,101238.25
2019-04-28T02:43:21.109Z,101240.42
2019-04-28T02:44:30.691Z,101239.95
2019-04-28T02:45:36.221Z,101243.94
2019-04-28T02:46:42.205Z,101242.23
2019-04-28T02:47:47.561Z,101243.56
2019-04-28T02:48:54.014Z,101246.59
2019-04-28T02:50:04.568Z,101245.64
2019-04-28T02:51:17.101Z,101239.81
2019-04-28T02:52:41.472Z,101241.66
2019-04-28T02:53:51.143Z,101249.25
2019-04-28T02:54:55.650Z,101242.70
2019-04-28T02:56:01.106Z,101244.52
2019-04-28T02:57:06.245Z,101245.73
2019-04-28T02:58:13.363Z,101248.40
2019-04-28T02:59:20.891Z,101244.04
2019-04-28T03:00:25.320Z,101244.52
2019-04-28T03:01:30.952Z,101245.98
2019-04-28T03:02:36.411Z,101245.12
2019-04-28T03:03:41.491Z,101244.89
2019-04-28T03:04:47.078Z,101244.98
2019-04-28T03:05:52.167Z,101244.27
2019-04-28T03:06:57.609Z,101249.69
2019-04-28T03:08:03.017Z,101247.89
2019-04-28T03:09:10.589Z,101244.38
2019-04-28T03:10:15.179Z,101239.20
2019-04-28T03:11:20.585Z,101246.22
2019-04-28T03:12:26.253Z,101244.52
2019-04-28T03:13:31.501Z,101242.81
2019-04-28T03:14:36.522Z,101240.16
2019-04-28T03:15:42.072Z,101243.42
2019-04-28T03:16:47.341Z,101248.36
2019-04-28T03:17:53.202Z,101244.00
2019-04-28T03:19:01.123Z,101242.33
2019-04-28T03:20:05.921Z,101248.13
2019-04-28T03:21:11.530Z,101252.11
2019-04-28T03:22:16.975Z,101242.56
2019-04-28T03:23:22.096Z,101247.98
2019-04-28T03:24:27.360Z,101247.03
2019-04-28T03:26:11.165Z,101246.55
2019-04-28T03:27:26.164Z,101247.50
2019-04-28T03:28:51.402Z,101243.75
2019-04-28T03:30:00.905Z,101250.16
2019-04-28T03:32:07.279Z,101251.45
2019-04-28T03:32:52.511Z,101243.60
2019-04-28T03:33:53.767Z,101251.19
2019-04-28T03:34:55.043Z,101256.59
2019-04-28T03:36:07.892Z,101251.28
2019-04-28T03:37:11.289Z,101252.61
2019-04-28T03:38:16.639Z,101248.15
2019-04-28T03:39:21.832Z,101250.33
2019-04-28T03:40:26.988Z,101250.67
2019-04-28T03:41:32.145Z,101256.36
2019-04-28T03:42:37.234Z,101254.56
2019-04-28T03:43:42.616Z,101255.41
2019-04-28T03:44:47.746Z,101258.31
2019-04-28T03:46:02.696Z,101251.57
2019-04-28T03:47:04.803Z,101255.80
2019-04-28T03:48:11.439Z,101256.14
2019-04-28T03:49:31.957Z,101254.34
2019-04-28T03:50:36.978Z,101256.41
2019-04-28T03:51:42.262Z,101256.76
2019-04-28T03:52:47.279Z,101258.36
2019-04-28T03:53:52.230Z,101258.70
2019-04-28T03:54:57.278Z,101257.85
2019-04-28T03:56:02.304Z,101262.21
2019-04-28T03:57:07.460Z,101267.52
2019-04-28T03:58:12.736Z,101263.55
2019-04-28T03:59:17.968Z,101255.95
2019-04-28T04:00:22.943Z,101262.11
2019-04-28T04:01:30.324Z,101256.52
2019-04-28T04:02:35.020Z,101260.51
2019-04-28T04:03:41.682Z,101261.02
2019-04-28T04:04:46.820Z,101264.63
2019-04-28T04:05:51.899Z,101268.13
2019-04-28T04:06:57.061Z,101263.16
2019-04-28T04:08:02.108Z,101266.33
2019-04-28T04:09:07.409Z,101258.46
2019-04-28T04:10:40.352Z,101262.92
2019-04-28T04:12:00.386Z,101268.37
2019-04-28T04:13:14.925Z,101269.42
2019-04-28T04:14:51.061Z,101275.24
2019-04-28T04:16:04.316Z,101267.85
2019-04-28T04:17:16.260Z,101267.75
2019-04-28T04:18:41.023Z,101267.62
2019-04-28T04:19:46.078Z,101274.16
2019-04-28T04:20:51.500Z,101270.41
2019-04-28T04:21:56.433Z,101270.04
2019-04-28T04:23:02.084Z,101267.89
2019-04-28T04:24:07.221Z,101276.68
2019-04-28T04:25:12.830Z,101274.02
2019-04-28T04:26:20.513Z,101275.36
2019-04-28T04:27:25.104Z,101273.08
2019-04-28T04:28:30.487Z,101268.37
2019-04-28T04:29:35.587Z,101277.19
2019-04-28T04:30:41.130Z,101280.19
2019-04-28T04:31:46.150Z,101278.39
2019-04-28T04:32:51.341Z,101278.39
2019-04-28T04:33:56.388Z,101275.02
2019-04-28T04:35:01.432Z,101277.29
2019-04-28T04:36:06.596Z,101281.28
2019-04-28T04:37:12.594Z,101282.23
2019-04-28T04:38:17.702Z,101274.87
2019-04-28T04:39:23.123Z,101276.67
2019-04-28T04:40:31.333Z,101278.48
2019-04-28T04:41:35.155Z,101284.77
2019-04-28T04:42:40.593Z,101281.03
2019-04-28T04:43:45.539Z,101280.55
2019-04-28T04:44:50.506Z,101287.31
2019-04-28T04:46:16.995Z,101287.69
2019-04-28T04:47:22.061Z,101285.88
2019-04-28T04:48:27.355Z,101288.78
2019-04-28T04:49:32.501Z,101296.66
2019-04-28T04:50:37.659Z,101288.55
2019-04-28T04:51:43.932Z,101290.83
2019-04-28T04:52:50.152Z,101291.11
2019-04-28T04:53:55.646Z,101298.47
2019-04-28T04:55:01.405Z,101297.03
2019-04-28T04:56:06.602Z,101299.94
2019-04-28T04:57:11.673Z,101295.34
2019-04-28T04:58:16.914Z,101296.19
2019-04-28T04:59:22.400Z,101298.99
2019-04-28T05:00:43.988Z,101298.04
2019-04-28T05:02:02.006Z,101302.37
2019-04-28T05:03:11.098Z,101308.91
2019-04-28T05:04:31.475Z,101312.42
2019-04-28T05:05:40.836Z,101310.58
2019-04-28T05:06:45.877Z,101309.62
2019-04-28T05:07:51.042Z,101315.80
2019-04-28T05:08:56.148Z,101319.78
2019-04-28T05:10:01.310Z,101319.41
2019-04-28T05:11:06.332Z,101318.08
2019-04-28T05:12:11.566Z,101320.39
2019-04-28T05:13:16.808Z,101327.04
2019-04-28T05:14:21.807Z,101320.73
2019-04-28T05:15:26.760Z,101321.02
2019-04-28T05:16:31.855Z,101330.19
2019-04-28T05:17:36.823Z,101320.27
2019-04-28T05:18:41.898Z,101324.63
2019-04-28T05:19:47.230Z,101324.53
2019-04-28T05:20:52.322Z,101331.65
2019-04-28T05:21:57.599Z,101328.52
2019-04-28T05:23:09.661Z,101331.89
2019-04-28T05:24:46.317Z,101327.43
2019-04-28T05:25:49.907Z,101330.94
2019-04-28T05:26:54.954Z,101329.95
2019-04-28T05:28:02.908Z,101333.36
2019-04-28T05:29:06.887Z,101335.89
2019-04-28T05:30:13.963Z,101335.06
2019-04-28T05:31:23.016Z,101330.70
2019-04-28T05:32:39.378Z,101331.90
2019-04-28T05:33:34.041Z,101338.92
2019-04-28T05:34:46.393Z,101335.78
2019-04-28T05:35:46.150Z,101336.02
2019-04-28T05:36:51.290Z,101332.61
2019-04-28T05:37:56.287Z,101333.13
2019-04-28T05:39:01.285Z,101334.45
2019-04-28T05:40:06.580Z,101337.59
2019-04-28T05:41:11.617Z,101340.48
2019-04-28T05:42:16.777Z,101347.38
2019-04-28T05:43:22.360Z,101340.97
2019-04-28T05:44:27.425Z,101341.11
2019-04-28T05:45:32.604Z,101343.19
2019-04-28T05:46:37.698Z,101348.27
2019-04-28T05:47:43.249Z,101351.65
2019-04-28T05:49:11.729Z,101347.66
2019-04-28T05:50:23.133Z,101348.38
2019-04-28T05:51:29.940Z,101355.30
2019-04-28T05:53:00.662Z,101347.66
2019-04-28T05:54:13.120Z,101350.45
2019-04-28T05:55:21.054Z,101352.50
2019-04-28T05:56:31.217Z,101359.25
2019-04-28T05:57:40.742Z,101350.45
2019-04-28T05:58:51.554Z,101352.88
2019-04-28T06:00:03.551Z,101349.98
2019-04-28T06:01:36.808Z,101352.88
2019-04-28T06:02:54.118Z,101357.00
2019-04-28T06:03:51.281Z,101353.73
2019-04-28T06:04:56.369Z,101355.06
2019-04-28T06:06:01.490Z,101357.72
2019-04-28T06:07:14.162Z,101353.73
2019-04-28T06:08:28.298Z,101354.58
2019-04-28T06:09:39.884Z,101357.62
2019-04-28T06:10:45.095Z,101355.06
2019-04-28T06:11:50.135Z,101358.81
2019-04-28T06:12:55.138Z,101364.88
2019-04-28T06:14:00.654Z,101355.81
2019-04-28T06:15:06.104Z,101360.52
2019-04-28T06:16:11.052Z,101365.36
2019-04-28T06:17:16.080Z,101363.92
2019-04-28T06:18:21.087Z,101362.45
2019-04-28T06:19:26.075Z,101365.39
2019-04-28T06:20:31.012Z,101365.73
2019-04-28T06:21:36.051Z,101363.44
2019-04-28T06:22:41.069Z,101364.30
2019-04-28T06:23:46.143Z,101364.05
2019-04-28T06:24:51.273Z,101366.10
2019-04-28T06:25:56.592Z,101368.52
2019-04-28T06:27:01.629Z,101367.19
2019-04-28T06:28:06.747Z,101372.30
2019-04-28T06:29:11.759Z,101373.16
2019-04-28T06:30:17.091Z,101372.20
2019-04-28T06:31:23.228Z,101373.39
2019-04-28T06:32:28.826Z,101373.66
2019-04-28T06:33:34.074Z,101369.05
2019-04-28T06:34:39.157Z,101369.42
2019-04-28T06:35:44.554Z,101373.42
2019-04-28T06:36:52.021Z,101372.43
2019-04-28T06:37:57.348Z,101380.20
2019-04-28T06:39:03.819Z,101378.02
2019-04-28T06:40:09.078Z,101378.88
2019-04-28T06:41:14.218Z,101385.16
2019-04-28T06:42:19.564Z,101384.41
2019-04-28T06:43:25.145Z,101383.59
2019-04-28T06:44:30.280Z,101384.41
2019-04-28T06:45:35.210Z,101378.98
2019-04-28T06:46:40.426Z,101383.34
2019-04-28T06:47:45.498Z,101381.53
2019-04-28T06:48:50.587Z,101382.63
2019-04-28T06:49:55.611Z,101383.34
2019-04-28T06:51:00.809Z,101381.39
2019-04-28T06:52:05.838Z,101386.23
2019-04-28T06:53:10.792Z,101382.98
2019-04-28T06:54:15.781Z,101386.13
2019-04-28T06:55:21.394Z,101383.80
2019-04-28T06:56:26.477Z,101387.45
2019-04-28T06:57:31.584Z,101389.26
2019-04-28T06:58:36.782Z,101390.83
2019-04-28T06:59:42.272Z,101388.66
2019-04-28T07:00:47.373Z,101388.79
2019-04-28T07:01:52.465Z,101386.73
2019-04-28T07:02:57.815Z,101389.48
2019-04-28T07:04:03.170Z,101396.27
2019-04-28T07:05:08.953Z,101390.95
2019-04-28T07:06:14.057Z,101388.05
2019-04-28T07:07:19.207Z,101389.63
2019-04-28T07:08:24.288Z,101388.78
2019-04-28T07:09:29.430Z,101389.87
2019-04-28T07:10:34.791Z,101391.56
2019-04-28T07:11:40.255Z,101383.44
2019-04-28T07:12:45.351Z,101386.83
2019-04-28T07:13:50.713Z,101391.31
2019-04-28T07:14:55.846Z,101382.86
2019-04-28T07:16:01.151Z,101380.55
2019-04-28T07:17:06.335Z,101386.11
2019-04-28T07:18:11.387Z,101380.08
2019-04-28T07:19:16.480Z,101383.69
2019-04-28T07:20:49.825Z,101388.64
2019-04-28T07:22:19.716Z,101383.83
2019-04-28T07:23:24.810Z,101389.26
2019-04-28T07:24:29.765Z,101385.13
2019-04-28T07:25:34.762Z,101385.13
2019-04-28T07:26:39.811Z,101387.55
2019-04-28T07:27:44.943Z,101387.31
2019-04-28T07:28:49.995Z,101384.55
2019-04-28T07:29:55.483Z,101394.81
2019-04-28T07:31:01.049Z,101395.30
2019-04-28T07:32:06.415Z,101385.50
2019-04-28T07:33:11.469Z,101393.37
2019-04-28T07:34:16.908Z,101393.72
2019-04-28T07:35:22.137Z,101398.94
2019-04-28T07:36:27.595Z,101404.74
2019-04-28T07:37:32.809Z,101404.50
2019-04-28T07:38:38.227Z,101403.30
2019-04-28T07:39:43.536Z,101399.78
2019-04-28T07:40:48.607Z,101399.91
2019-04-28T07:41:53.675Z,101396.75
2019-04-28T07:42:58.657Z,101405.86
2019-04-28T07:44:03.771Z,101399.89
2019-04-28T07:45:09.236Z,101395.06
2019-04-28T07:46:14.651Z,101403.89
2019-04-28T07:47:20.273Z,101411.27
2019-04-28T07:48:25.647Z,101403.05
2019-04-28T07:49:30.568Z,101402.80
2019-04-28T07:50:35.625Z,101413.45
2019-04-28T07:51:54.249Z,101405.91
2019-04-28T07:53:05.947Z,101404.82
2019-04-28T07:54:11.525Z,101411.35
2019-04-28T07:55:16.752Z,101410.00
2019-04-28T07:56:22.114Z,101408.30
2019-04-28T07:57:31.498Z,101414.23
2019-04-28T07:58:36.721Z,101406.09
2019-04-28T07:59:41.848Z,101412.98
2019-04-28T08:00:48.810Z,101414.80
2019-04-28T08:01:54.300Z,101418.41
2019-04-28T08:02:59.334Z,101423.40
2019-04-28T08:04:04.556Z,101422.52
2019-04-28T08:05:10.099Z,101420.11
2019-04-28T08:06:15.370Z,101421.41
2019-04-28T08:07:20.507Z,101415.82
2019-04-28T08:08:25.546Z,101416.19
2019-04-28T08:09:30.657Z,101417.75
2019-04-28T08:10:35.865Z,101420.64
2019-04-28T08:11:41.042Z,101414.56
2019-04-28T08:12:46.015Z,101422.19
2019-04-28T08:13:51.741Z,101423.27
2019-04-28T08:14:56.920Z,101415.93
2019-04-28T08:16:02.097Z,101416.25
2019-04-28T08:17:07.540Z,101416.84
2019-04-28T08:18:12.972Z,101422.35
2019-04-28T08:19:18.064Z,101422.45
2019-04-28T08:20:23.129Z,101418.19
2019-04-28T08:21:28.169Z,101416.84
2019-04-28T08:22:33.197Z,101419.90
2019-04-28T08:23:47.056Z,101422.98
2019-04-28T08:24:45.829Z,101424.58
2019-04-28T08:25:50.859Z,101423.36
2019-04-28T08:26:55.906Z,101425.44
2019-04-28T08:28:01.365Z,101430.34
2019-04-28T08:29:06.448Z,101428.19
2019-04-28T08:30:11.725Z,101425.41
2019-04-28T08:31:18.450Z,101426.27
2019-04-28T08:32:38.593Z,101427.86
2019-04-28T08:34:02.199Z,101424.01
2019-04-28T08:35:00.924Z,101426.94
2019-04-28T08:36:06.104Z,101424.75
2019-04-28T08:37:11.340Z,101428.75
2019-04-28T08:38:16.725Z,101430.20
2019-04-28T08:39:25.024Z,101426.72
2019-04-28T08:40:28.584Z,101430.34
2019-04-28T08:41:33.927Z,101425.64
2019-04-28T08:42:39.204Z,101424.64
2019-04-28T08:43:44.889Z,101421.38
2019-04-28T08:44:49.918Z,101425.56
2019-04-28T08:45:55.303Z,101428.09
2019-04-28T08:47:00.442Z,101431.08
2019-04-28T08:48:05.728Z,101431.30
2019-04-28T08:49:10.914Z,101432.04
2019-04-28T08:50:16.177Z,101434.70
2019-04-28T08:51:21.593Z,101432.04
2019-04-28T08:52:26.658Z,101436.64
2019-04-28T08:53:31.820Z,101433.27
2019-04-28T08:54:36.931Z,101432.16
2019-04-28T08:55:42.545Z,101435.41
2019-04-28T08:56:47.689Z,101435.59
2019-04-28T08:57:52.787Z,101437.03
2019-04-28T08:58:57.869Z,101437.52
2019-04-28T09:00:03.135Z,101433.17
2019-04-28T09:01:08.360Z,101442.38
2019-04-28T09:02:13.852Z,101434.73
2019-04-28T09:03:18.923Z,101437.14
2019-04-28T09:04:24.290Z,101439.43
2019-04-28T09:05:29.488Z,101438.90
2019-04-28T09:06:34.570Z,101440.55
2019-04-28T09:07:39.776Z,101445.36
2019-04-28T09:08:44.949Z,101447.65
2019-04-28T09:09:50.207Z,101444.34
2019-04-28T09:10:55.391Z,101453.42
2019-04-28T09:12:00.565Z,101453.86
2019-04-28T09:13:05.707Z,101447.06
2019-04-28T09:14:11.138Z,101444.27
2019-04-28T09:15:16.437Z,101446.31
2019-04-28T09:16:21.470Z,101451.91
2019-04-28T09:17:26.648Z,101452.97
2019-04-28T09:18:31.975Z,101444.35
2019-04-28T09:19:37.032Z,101446.12
2019-04-28T09:20:42.135Z,101450.92
2019-04-28T09:21:47.928Z,101447.70
2019-04-28T09:22:53.067Z,101444.85
2019-04-28T09:23:58.146Z,101451.27
2019-04-28T09:25:03.729Z,101451.99
2019-04-28T09:26:09.100Z,101447.25
2019-04-28T09:27:14.247Z,101453.51
2019-04-28T09:28:19.368Z,101454.39
2019-04-28T09:29:24.529Z,101452.35
2019-04-28T09:30:30.018Z,101450.74
2019-04-28T09:31:35.061Z,101450.95
2019-04-28T09:32:40.267Z,101459.92
2019-04-28T09:33:45.594Z,101456.03
2019-04-28T09:34:51.069Z,101453.63
2019-04-28T09:35:56.191Z,101455.60
2019-04-28T09:37:01.346Z,101454.48
2019-04-28T09:38:06.342Z,101463.34
2019-04-28T09:39:13.068Z,101459.55
2019-04-28T09:40:18.551Z,101458.80
2019-04-28T09:41:23.642Z,101454.78
2019-04-28T09:42:56.835Z,101457.94
2019-04-28T09:44:11.620Z,101462.95
2019-04-28T09:45:22.542Z,101455.64
2019-04-28T09:46:30.594Z,101459.38
2019-04-28T09:47:35.825Z,101456.91
2019-04-28T09:48:41.090Z,101460.16
2019-04-28T09:49:46.400Z,101459.28
2019-04-28T09:50:51.873Z,101452.92
2019-04-28T09:51:56.891Z,101457.79
2019-04-28T09:53:01.897Z,101455.97
2019-04-28T09:54:07.353Z,101462.02
2019-04-28T09:55:12.574Z,101462.86
2019-04-28T09:56:17.751Z,101463.08
2019-04-28T09:57:22.932Z,101458.82
2019-04-28T09:58:28.262Z,101464.02
2019-04-28T09:59:33.444Z,101464.86
2019-04-28T10:00:40.010Z,101457.69
2019-04-28T10:01:45.276Z,101455.98
2019-04-28T10:02:50.446Z,101458.45
2019-04-28T10:03:55.609Z,101461.73
2019-04-28T10:05:00.655Z,101455.00
2019-04-28T10:06:06.394Z,101457.21
2019-04-28T10:07:11.459Z,101458.25
2019-04-28T10:08:16.787Z,101454.94
2019-04-28T10:09:21.800Z,101459.19
2019-04-28T10:10:27.191Z,101466.23
2019-04-28T10:11:32.187Z,101459.06
2019-04-28T10:12:37.212Z,101465.62
2019-04-28T10:13:42.210Z,101460.61
2019-04-28T10:14:47.397Z,101462.53
2019-04-28T10:15:52.774Z,101463.47
2019-04-28T10:16:57.967Z,101462.84
2019-04-28T10:18:03.290Z,101463.89
2019-04-28T10:19:08.296Z,101465.88
2019-04-28T10:20:13.631Z,101465.99
2019-04-28T10:21:19.011Z,101463.96
2019-04-28T10:22:24.547Z,101464.45
2019-04-28T10:23:29.725Z,101467.12
2019-04-28T10:24:34.809Z,101471.41
2019-04-28T10:25:39.917Z,101465.69
2019-04-28T10:26:45.109Z,101469.09
2019-04-28T10:27:50.230Z,101468.82
2019-04-28T10:28:55.381Z,101469.03
2019-04-28T10:30:00.787Z,101466.94
2019-04-28T10:31:08.338Z,101464.96
2019-04-28T10:32:13.940Z,101470.30
2019-04-28T10:33:19.574Z,101470.58
2019-04-28T10:34:24.720Z,101464.81
2019-04-28T10:35:30.041Z,101468.18
2019-04-28T10:36:36.729Z,101471.31
2019-04-28T10:37:41.860Z,101468.09
2019-04-28T10:38:48.533Z,101468.97
2019-04-28T10:40:11.764Z,101466.80
2019-04-28T10:41:23.524Z,101464.26
2019-04-28T10:42:28.543Z,101455.76
2019-04-28T10:43:33.927Z,101464.31
2019-04-28T10:44:41.908Z,101459.48
2019-04-28T10:45:48.531Z,101460.62
2019-04-28T10:46:53.642Z,101459.41
2019-04-28T10:47:59.325Z,101467.87
2019-04-28T10:49:04.429Z,101459.77
2019-04-28T10:50:09.841Z,101469.21
2019-04-28T10:51:15.260Z,101463.08
2019-04-28T10:52:20.496Z,101462.43
2019-04-28T10:53:28.126Z,101467.01
2019-04-28T10:54:33.544Z,101465.25
2019-04-28T10:55:38.708Z,101468.63
2019-04-28T10:56:44.165Z,101473.33
2019-04-28T10:57:49.256Z,101466.08
2019-04-28T10:58:57.166Z,101466.92
2019-04-28T11:00:02.276Z,101471.99
2019-04-28T11:01:07.564Z,101468.98
2019-04-28T11:02:12.896Z,101468.34
2019-04-28T11:03:17.973Z,101466.02
2019-04-28T11:04:41.252Z,101464.45
2019-04-28T11:05:46.844Z,101466.92
2019-04-28T11:06:51.789Z,101470.95
2019-04-28T11:07:57.542Z,101463.29
2019-04-28T11:09:30.461Z,101472.70
2019-04-28T11:10:28.938Z,101472.09
2019-04-28T11:11:37.174Z,101470.88
2019-04-28T11:12:42.317Z,101474.58
2019-04-28T11:13:47.445Z,101480.28
2019-04-28T11:14:52.541Z,101476.95
2019-04-28T11:15:58.023Z,101480.88
2019-04-28T11:17:03.159Z,101475.60
2019-04-28T11:18:09.978Z,101474.66
2019-04-28T11:19:15.327Z,101477.50
2019-04-28T11:20:20.672Z,101477.77
2019-04-28T11:21:25.980Z,101477.20
2019-04-28T11:22:31.141Z,101477.11
2019-04-28T11:23:36.377Z,101480.06
2019-04-28T11:24:41.915Z,101479.12
2019-04-28T11:25:46.989Z,101472.38
2019-04-28T11:26:52.044Z,101475.08
2019-04-28T11:27:57.297Z,101471.83
2019-04-28T11:29:02.406Z,101479.79
2019-04-28T11:30:07.927Z,101476.05
2019-04-28T11:31:12.947Z,101484.40
2019-04-28T11:32:18.074Z,101479.15
2019-04-28T11:33:40.569Z,101477.45
2019-04-28T11:34:54.573Z,101474.77
2019-04-28T11:35:59.898Z,101470.77
2019-04-28T11:37:05.143Z,101474.87
2019-04-28T11:38:10.311Z,101472.12
2019-04-28T11:39:19.928Z,101469.64
2019-04-28T11:40:25.432Z,101467.84
2019-04-28T11:41:31.016Z,101467.09
2019-04-28T11:42:35.969Z,101467.80
2019-04-28T11:43:41.101Z,101466.63
2019-04-28T11:44:46.305Z,101468.13
2019-04-28T11:45:51.750Z,101471.94
2019-04-28T11:46:56.867Z,101464.84
2019-04-28T11:48:01.944Z,101470.40
2019-04-28T11:49:07.023Z,101473.28
2019-04-28T11:50:12.198Z,101465.61
2019-04-28T11:51:17.474Z,101474.20
2019-04-28T11:52:22.717Z,101470.19
2019-04-28T11:53:28.101Z,101476.03
2019-04-28T11:54:33.743Z,101472.02
2019-04-28T11:55:38.794Z,101470.19
2019-04-28T11:56:44.048Z,101475.39
2019-04-28T11:57:49.509Z,101473.56
2019-04-28T11:58:54.536Z,101475.14
2019-04-28T11:59:59.862Z,101472.02
2019-04-28T12:01:05.448Z,101466.38
2019-04-28T12:02:10.593Z,101469.00
2019-04-28T12:03:15.715Z,101469.11
2019-04-28T12:04:20.936Z,101473.77
2019-04-28T12:05:34.559Z,101469.45
2019-04-28T12:06:37.387Z,101474.72
2019-04-28T12:07:42.484Z,101479.38
2019-04-28T12:08:49.163Z,101471.44
2019-04-28T12:10:06.262Z,101469.67
2019-04-28T12:11:24.362Z,101473.89
2019-04-28T12:12:47.643Z,101473.61
2019-04-28T12:14:15.066Z,101474.88
2019-04-28T12:15:38.011Z,101475.95
2019-04-28T12:17:00.755Z,101474.41
2019-04-28T12:18:23.039Z,101475.35
2019-04-28T12:19:33.965Z,101479.86
2019-04-28T12:20:39.306Z,101481.98
2019-04-28T12:21:44.319Z,101479.52
2019-04-28T12:22:49.334Z,101484.41
2019-04-28T12:23:54.518Z,101481.05
2019-04-28T12:24:59.692Z,101487.39
2019-04-28T12:26:04.898Z,101484.92
2019-04-28T12:27:09.947Z,101486.53
2019-04-28T12:28:15.183Z,101484.47
2019-04-28T12:29:20.423Z,101487.59
2019-04-28T12:30:25.587Z,101489.01
2019-04-28T12:31:30.834Z,101487.95
2019-04-28T12:32:35.848Z,101489.21
2019-04-28T12:33:40.956Z,101481.58
2019-04-28T12:34:46.294Z,101491.75
2019-04-28T12:35:51.351Z,101478.40
2019-04-28T12:36:56.594Z,101489.91
2019-04-28T12:38:01.723Z,101486.66
2019-04-28T12:39:08.223Z,101483.39
2019-04-28T12:40:13.339Z,101490.42
2019-04-28T12:41:18.460Z,101491.76
2019-04-28T12:42:23.620Z,101487.61
2019-04-28T12:43:29.033Z,101487.81
2019-04-28T12:44:34.333Z,101488.17
2019-04-28T12:45:39.206Z,101487.48